Time;durP1;ratioP1;P1;durP2;ratioP2;P2;SDS_P1;SDS_P2;PMS_P1;PMS_P2;Temp;Humidity;BMP_temperature;BMP_pressure;BME280_temperature;BME280_humidity;BME280_pressure;Samples;Min_cycle;Max_cycle;Signal;HPM_P1;HPM_P2
2023/09/23 06:01:20;;;;;;;1.70;1.13;;;;;;;;;;5502450;23;20854;-66
2023/09/23 06:03:48;;;;;;;3.57;2.00;;;;;;;;;;4976078;28;20499;-67
2023/09/23 06:06:14;;;;;;;4.40;2.03;;;;;;;;;;4976531;28;20554;-67
2023/09/23 06:08:40;;;;;;;1.90;1.73;;;;;;;;;;4976192;28;20499;-66
2023/09/23 06:11:06;;;;;;;3.10;1.60;;;;;;;;;;4975950;28;20928;-66
2023/09/23 06:13:32;;;;;;;3.30;1.30;;;;;;;;;;4975744;28;20400;-67
2023/09/23 06:16:05;;;;;;;2.23;1.63;;;;;;;;;;4976277;28;20824;-69
2023/09/23 06:18:31;;;;;;;1.80;1.40;;;;;;;;;;4975898;28;20403;-69
2023/09/23 06:21:01;;;;;;;1.83;1.40;;;;;;;;;;4975787;28;20851;-69
2023/09/23 06:23:27;;;;;;;2.43;1.70;;;;;;;;;;4957562;28;20421;-67
2023/09/23 06:25:54;;;;;;;3.43;1.67;;;;;;;;;;4956447;29;20494;-67
2023/09/23 06:28:20;;;;;;;3.70;1.60;;;;;;;;;;4956742;29;20420;-67
2023/09/23 06:30:46;;;;;;;1.50;1.00;;;;;;;;;;4956328;29;20443;-68
2023/09/23 06:33:12;;;;;;;4.70;1.60;;;;;;;;;;4956207;29;20432;-67
2023/09/23 06:35:38;;;;;;;2.97;1.70;;;;;;;;;;4955106;29;20924;-69
2023/09/23 06:38:04;;;;;;;1.90;1.27;;;;;;;;;;4956262;29;20855;-68
2023/09/23 06:40:30;;;;;;;1.67;1.30;;;;;;;;;;4956046;29;20575;-69
2023/09/23 06:42:56;;;;;;;2.20;1.20;;;;;;;;;;4956201;29;20512;-69
2023/09/23 06:45:22;;;;;;;5.77;1.30;;;;;;;;;;4955987;29;20452;-68
2023/09/23 06:47:48;;;;;;;3.03;1.37;;;;;;;;;;4955308;28;20413;-69
2023/09/23 06:50:14;;;;;;;1.17;1.13;;;;;;;;;;4955743;28;20417;-69
2023/09/23 06:52:40;;;;;;;2.77;1.60;;;;;;;;;;4955866;29;20413;-69
2023/09/23 06:55:06;;;;;;;4.83;1.43;;;;;;;;;;4955277;28;20938;-69
2023/09/23 06:57:35;;;;;;;1.70;1.30;;;;;;;;;;4970373;28;20463;-68
2023/09/23 07:00:01;;;;;;;1.30;1.10;;;;;;;;;;4975351;28;20416;-69
2023/09/23 07:02:27;;;;;;;2.00;1.30;;;;;;;;;;4973801;28;20506;-71
2023/09/23 07:04:53;;;;;;;4.50;2.10;;;;;;;;;;4971507;28;20835;-69
2023/09/23 07:07:19;;;;;;;2.63;1.63;;;;;;;;;;4972998;28;20483;-69
2023/09/23 07:09:45;;;;;;;2.10;1.37;;;;;;;;;;4974552;28;20482;-69
2023/09/23 07:12:13;;;;;;;2.40;1.30;;;;;;;;;;4974522;28;20432;-69
2023/09/23 07:14:40;;;;;;;6.10;1.60;;;;;;;;;;4974897;28;20414;-69
2023/09/23 07:17:06;;;;;;;2.30;1.57;;;;;;;;;;4974814;28;20423;-70
2023/09/23 07:19:32;;;;;;;9.63;1.60;;;;;;;;;;4974912;28;20403;-69
2023/09/23 07:21:58;;;;;;;2.40;1.70;;;;;;;;;;4974013;28;20447;-69
2023/09/23 07:24:26;;;;;;;2.37;1.40;;;;;;;;;;4974361;28;20420;-69
2023/09/23 07:26:55;;;;;;;6.70;1.43;;;;;;;;;;4974657;28;20467;-70
2023/09/23 07:29:21;;;;;;;2.33;1.07;;;;;;;;;;4974660;28;20412;-70
2023/09/23 07:31:47;;;;;;;4.80;2.03;;;;;;;;;;4974571;28;20495;-69
2023/09/23 07:34:13;;;;;;;2.63;1.37;;;;;;;;;;4974459;28;20412;-70
2023/09/23 07:36:39;;;;;;;2.80;1.23;;;;;;;;;;4974453;28;20419;-70
2023/09/23 07:39:05;;;;;;;1.80;1.03;;;;;;;;;;4974470;28;20500;-69
2023/09/23 07:41:31;;;;;;;5.20;1.47;;;;;;;;;;4974083;28;20447;-70
2023/09/23 07:43:57;;;;;;;3.40;1.97;;;;;;;;;;4972774;28;20515;-70
2023/09/23 07:46:23;;;;;;;4.63;1.70;;;;;;;;;;4972477;28;20503;-70
2023/09/23 07:48:49;;;;;;;2.47;1.50;;;;;;;;;;4971858;28;20466;-70
2023/09/23 07:51:15;;;;;;;2.83;1.60;;;;;;;;;;4974099;28;20455;-70
2023/09/23 07:53:41;;;;;;;2.90;1.50;;;;;;;;;;4972608;28;20882;-70
2023/09/23 07:56:09;;;;;;;3.13;1.60;;;;;;;;;;4972668;28;20431;-70
2023/09/23 07:58:35;;;;;;;4.57;1.40;;;;;;;;;;4971645;28;20801;-70
2023/09/23 08:01:01;;;;;;;2.37;1.40;;;;;;;;;;4970500;28;20460;-70
2023/09/23 08:03:28;;;;;;;2.63;1.37;;;;;;;;;;4971806;28;20427;-71
2023/09/23 08:05:54;;;;;;;3.30;1.30;;;;;;;;;;4972031;28;20497;-70
2023/09/23 08:08:20;;;;;;;1.77;1.10;;;;;;;;;;4958077;28;20428;-70
2023/09/23 08:10:49;;;;;;;3.33;1.37;;;;;;;;;;4954770;29;20429;-70
2023/09/23 08:13:15;;;;;;;2.00;1.30;;;;;;;;;;4955005;28;20413;-70
2023/09/23 08:15:41;;;;;;;2.27;1.20;;;;;;;;;;4954680;29;20413;-69
2023/09/23 08:18:07;;;;;;;2.57;1.30;;;;;;;;;;4954774;29;20425;-70
2023/09/23 08:20:34;;;;;;;8.37;1.60;;;;;;;;;;4954443;29;20436;-70
2023/09/23 08:23:00;;;;;;;5.03;1.43;;;;;;;;;;4954477;28;20495;-69
2023/09/23 08:25:26;;;;;;;2.60;1.50;;;;;;;;;;4954335;28;20460;-69
2023/09/23 08:27:56;;;;;;;4.60;1.27;;;;;;;;;;4954511;29;20428;-70
2023/09/23 08:30:22;;;;;;;8.27;1.50;;;;;;;;;;4954511;29;20420;-69
2023/09/23 08:32:48;;;;;;;1.67;1.10;;;;;;;;;;4954443;29;20409;-69
2023/09/23 08:35:14;;;;;;;3.90;1.40;;;;;;;;;;4960166;28;20464;-69
2023/09/23 08:37:40;;;;;;;2.47;1.57;;;;;;;;;;4974488;28;20435;-70
2023/09/23 08:40:10;;;;;;;1.60;0.90;;;;;;;;;;4973503;28;20903;-69
2023/09/23 08:42:38;;;;;;;2.50;1.10;;;;;;;;;;4973801;28;20411;-70
2023/09/23 08:45:06;;;;;;;2.27;1.20;;;;;;;;;;4973774;28;20779;-70
2023/09/23 08:47:32;;;;;;;1.50;1.03;;;;;;;;;;4973176;28;20404;-71
2023/09/23 08:49:58;;;;;;;1.93;1.10;;;;;;;;;;4973350;28;20412;-71
2023/09/23 08:52:25;;;;;;;2.57;1.10;;;;;;;;;;4972974;28;20919;-71
2023/09/23 08:54:51;;;;;;;5.77;1.30;;;;;;;;;;4972942;28;20412;-70
2023/09/23 08:57:17;;;;;;;3.30;1.30;;;;;;;;;;4961329;28;20463;-71
2023/09/23 08:59:43;;;;;;;3.03;1.67;;;;;;;;;;4953823;29;20413;-70
2023/09/23 09:02:12;;;;;;;4.50;1.40;;;;;;;;;;4953743;29;20463;-70
2023/09/23 09:04:38;;;;;;;8.37;1.30;;;;;;;;;;4953810;28;20440;-70
2023/09/23 09:07:06;;;;;;;1.70;1.10;;;;;;;;;;4959686;28;20816;-70
2023/09/23 09:09:32;;;;;;;3.10;1.87;;;;;;;;;;4967365;28;21022;-70
2023/09/23 09:11:58;;;;;;;3.37;1.60;;;;;;;;;;4967890;28;20550;-71
2023/09/23 09:14:25;;;;;;;3.00;1.33;;;;;;;;;;4972630;28;20407;-69
2023/09/23 09:16:51;;;;;;;4.00;1.63;;;;;;;;;;4972840;28;20422;-70
2023/09/23 09:19:19;;;;;;;3.27;1.43;;;;;;;;;;4972980;28;20415;-70
2023/09/23 09:21:45;;;;;;;5.90;1.30;;;;;;;;;;4972433;28;20431;-70
2023/09/23 09:24:11;;;;;;;3.77;1.60;;;;;;;;;;4972653;28;20411;-70
2023/09/23 09:26:40;;;;;;;4.60;1.57;;;;;;;;;;4972863;28;20802;-70
2023/09/23 09:29:06;;;;;;;3.40;1.63;;;;;;;;;;4970597;28;20411;-70
2023/09/23 09:31:33;;;;;;;2.90;1.03;;;;;;;;;;4952022;29;20506;-72
2023/09/23 09:34:03;;;;;;;2.20;1.23;;;;;;;;;;4953230;29;20421;-71
2023/09/23 09:36:29;;;;;;;4.23;1.40;;;;;;;;;;4953434;29;20416;-71
2023/09/23 09:38:56;;;;;;;5.40;1.50;;;;;;;;;;4953423;29;20413;-71
2023/09/23 09:41:28;;;;;;;2.57;1.23;;;;;;;;;;4970607;28;20529;-71
2023/09/23 09:43:54;;;;;;;4.20;1.73;;;;;;;;;;4972235;28;20427;-71
2023/09/23 09:46:20;;;;;;;2.73;1.70;;;;;;;;;;4972510;28;20471;-71
2023/09/23 09:48:48;;;;;;;5.67;1.60;;;;;;;;;;4972683;28;20416;-71
2023/09/23 09:51:15;;;;;;;2.53;1.30;;;;;;;;;;4972636;28;20423;-71
2023/09/23 09:53:44;;;;;;;3.17;1.40;;;;;;;;;;4972370;28;20435;-71
2023/09/23 09:56:10;;;;;;;3.60;1.30;;;;;;;;;;4967490;28;20480;-71
2023/09/23 09:58:41;;;;;;;5.30;1.50;;;;;;;;;;4953357;29;20792;-71
2023/09/23 10:01:13;;;;;;;4.43;1.50;;;;;;;;;;4953128;28;20456;-71
2023/09/23 10:03:48;;;;;;;3.57;1.50;;;;;;;;;;4953377;29;20423;-70
2023/09/23 10:06:21;;;;;;;3.67;1.47;;;;;;;;;;4953204;28;20468;-70
2023/09/23 10:08:48;;;;;;;1.70;1.00;;;;;;;;;;4953147;28;20784;-70
2023/09/23 10:11:15;;;;;;;3.60;1.57;;;;;;;;;;4952985;29;20439;-70
2023/09/23 10:13:42;;;;;;;7.93;1.83;;;;;;;;;;4951518;29;20421;-71
2023/09/23 10:16:12;;;;;;;4.13;2.10;;;;;;;;;;4953041;28;20420;-71
2023/09/23 10:18:39;;;;;;;5.07;1.90;;;;;;;;;;4953019;29;20448;-71
2023/09/23 10:21:06;;;;;;;5.07;1.83;;;;;;;;;;4952784;28;20438;-70
2023/09/23 10:23:36;;;;;;;2.40;1.20;;;;;;;;;;4955056;28;20513;-71
2023/09/23 10:26:15;;;;;;;4.00;1.40;;;;;;;;;;4956343;29;20468;-71
2023/09/23 10:28:41;;;;;;;2.93;1.40;;;;;;;;;;4956428;29;20844;-69
2023/09/23 10:31:07;;;;;;;2.33;1.20;;;;;;;;;;4959586;28;20485;-70
2023/09/23 10:33:36;;;;;;;3.10;1.23;;;;;;;;;;4972574;28;20519;-70
2023/09/23 10:36:03;;;;;;;1.73;1.40;;;;;;;;;;4972976;28;20428;-71
2023/09/23 10:38:35;;;;;;;3.07;1.60;;;;;;;;;;4956020;28;20416;-70
2023/09/23 10:41:01;;;;;;;4.30;1.93;;;;;;;;;;4967514;28;20451;-71
2023/09/23 10:43:27;;;;;;;4.07;1.50;;;;;;;;;;4975086;28;21006;-70
2023/09/23 10:46:01;;;;;;;2.80;1.40;;;;;;;;;;4975947;28;20464;-70
2023/09/23 10:48:27;;;;;;;7.00;1.53;;;;;;;;;;4967769;28;20459;-69
2023/09/23 10:50:54;;;;;;;3.20;1.20;;;;;;;;;;4970854;28;20448;-69
2023/09/23 10:53:24;;;;;;;2.93;1.47;;;;;;;;;;4955567;29;20448;-72
2023/09/23 10:55:51;;;;;;;2.60;1.50;;;;;;;;;;4955919;28;20409;-71
2023/09/23 10:58:18;;;;;;;6.10;1.77;;;;;;;;;;4955684;29;20417;-71
2023/09/23 11:00:44;;;;;;;5.00;1.53;;;;;;;;;;4955748;29;20449;-71
2023/09/23 11:03:10;;;;;;;2.67;1.57;;;;;;;;;;4955845;29;20463;-71
2023/09/23 11:05:37;;;;;;;3.23;1.93;;;;;;;;;;4955496;29;20944;-71
2023/09/23 11:08:05;;;;;;;1.80;1.33;;;;;;;;;;4955541;29;20424;-70
2023/09/23 11:10:32;;;;;;;3.23;1.60;;;;;;;;;;4955517;29;20435;-70
2023/09/23 11:12:58;;;;;;;2.33;1.53;;;;;;;;;;4955496;28;20565;-71
2023/09/23 11:15:24;;;;;;;4.53;1.47;;;;;;;;;;4955476;29;20413;-69
2023/09/23 11:17:53;;;;;;;3.43;1.50;;;;;;;;;;4955431;29;20912;-72
2023/09/23 11:20:27;;;;;;;2.43;1.40;;;;;;;;;;4969575;28;20455;-71
2023/09/23 11:22:57;;;;;;;5.07;1.20;;;;;;;;;;4974256;28;20408;-71
2023/09/23 11:25:24;;;;;;;7.13;1.80;;;;;;;;;;4974320;28;20415;-71
2023/09/23 11:27:51;;;;;;;4.70;1.40;;;;;;;;;;4974375;28;20801;-72
2023/09/23 11:30:17;;;;;;;4.57;1.30;;;;;;;;;;4974664;28;20424;-71
2023/09/23 11:32:43;;;;;;;6.83;1.47;;;;;;;;;;4974805;28;20757;-68
2023/09/23 11:35:09;;;;;;;3.27;1.43;;;;;;;;;;4973961;28;20412;-69
2023/09/23 11:37:35;;;;;;;1.80;1.33;;;;;;;;;;4975041;28;20412;-70
2023/09/23 11:40:03;;;;;;;2.63;1.53;;;;;;;;;;4974544;28;20412;-69
2023/09/23 11:42:29;;;;;;;6.20;1.73;;;;;;;;;;4971824;28;20675;-70
2023/09/23 11:44:55;;;;;;;2.67;1.50;;;;;;;;;;4974236;28;20703;-70
2023/09/23 11:47:22;;;;;;;6.10;1.87;;;;;;;;;;4973543;28;20811;-70
2023/09/23 11:49:50;;;;;;;2.50;1.43;;;;;;;;;;4974403;28;20467;-70
2023/09/23 11:52:16;;;;;;;6.13;1.87;;;;;;;;;;4974079;28;20943;-69
2023/09/23 11:54:43;;;;;;;3.67;1.33;;;;;;;;;;4974048;28;20415;-69
2023/09/23 11:57:09;;;;;;;2.30;1.57;;;;;;;;;;4974013;28;21018;-70
2023/09/23 11:59:35;;;;;;;3.60;2.03;;;;;;;;;;4974461;28;20958;-70
2023/09/23 12:02:02;;;;;;;4.53;1.80;;;;;;;;;;4972797;28;20459;-70
2023/09/23 12:04:28;;;;;;;5.37;1.90;;;;;;;;;;4973965;28;20911;-69
2023/09/23 12:06:53;;;;;;;3.30;1.33;;;;;;;;;;4974153;28;20512;-69
2023/09/23 12:09:19;;;;;;;3.90;2.03;;;;;;;;;;4974119;28;20443;-70
2023/09/23 12:11:45;;;;;;;2.73;1.63;;;;;;;;;;4973917;28;20435;-68
2023/09/23 12:14:12;;;;;;;5.90;2.83;;;;;;;;;;4973512;28;20503;-70
2023/09/23 12:16:38;;;;;;;4.73;2.57;;;;;;;;;;4972796;23;20568;-71
2023/09/23 12:19:04;;;;;;;8.00;3.47;;;;;;;;;;4936825;29;20765;-71
2023/09/23 12:21:30;;;;;;;7.00;1.70;;;;;;;;;;4937355;29;20417;-71
2023/09/23 12:23:59;;;;;;;6.70;2.17;;;;;;;;;;4935716;29;20461;-71
2023/09/23 12:26:26;;;;;;;2.90;1.50;;;;;;;;;;4951983;29;20456;-69
2023/09/23 12:28:52;;;;;;;3.80;1.80;;;;;;;;;;4954714;28;20922;-70
2023/09/23 12:31:18;;;;;;;5.10;2.03;;;;;;;;;;4955019;28;20436;-69
2023/09/23 12:33:44;;;;;;;4.17;1.83;;;;;;;;;;4954764;28;20420;-70
2023/09/23 12:36:10;;;;;;;6.50;2.13;;;;;;;;;;4954917;28;20440;-70
2023/09/23 12:38:36;;;;;;;3.33;1.80;;;;;;;;;;4954940;28;20476;-70
2023/09/23 12:41:02;;;;;;;2.07;1.40;;;;;;;;;;4955272;28;20512;-69
2023/09/23 12:43:28;;;;;;;2.27;1.40;;;;;;;;;;4945468;28;20490;-70
2023/09/23 12:45:54;;;;;;;3.23;1.50;;;;;;;;;;4935576;29;20498;-69
2023/09/23 12:48:20;;;;;;;3.23;1.00;;;;;;;;;;4936504;29;20456;-71
2023/09/23 12:50:46;;;;;;;5.63;1.30;;;;;;;;;;4936285;29;20422;-71
2023/09/23 12:53:12;;;;;;;2.40;1.33;;;;;;;;;;4941200;29;20424;-69
2023/09/23 12:55:38;;;;;;;8.63;1.80;;;;;;;;;;4954010;28;20463;-70
2023/09/23 12:58:05;;;;;;;1.20;1.13;;;;;;;;;;4953843;28;20448;-69
2023/09/23 13:00:31;;;;;;;5.07;1.80;;;;;;;;;;4952256;28;20951;-69
2023/09/23 13:02:57;;;;;;;2.40;1.53;;;;;;;;;;4953437;28;20441;-69
2023/09/23 13:05:23;;;;;;;2.03;1.30;;;;;;;;;;4953690;28;20439;-70
2023/09/23 13:07:49;;;;;;;2.57;1.20;;;;;;;;;;4954423;28;20409;-70
2023/09/23 13:10:15;;;;;;;1.87;1.20;;;;;;;;;;4954215;28;20451;-69
2023/09/23 13:12:41;;;;;;;4.00;1.27;;;;;;;;;;4952445;28;20546;-69
2023/09/23 13:15:07;;;;;;;2.23;1.30;;;;;;;;;;4945908;28;20429;-69
2023/09/23 13:17:34;;;;;;;3.53;1.23;;;;;;;;;;4933493;29;20460;-70
2023/09/23 13:20:00;;;;;;;1.43;1.10;;;;;;;;;;4934869;29;20504;-70
2023/09/23 13:22:26;;;;;;;3.33;1.40;;;;;;;;;;4934290;29;20437;-70
2023/09/23 13:24:52;;;;;;;5.63;1.50;;;;;;;;;;4934997;29;20452;-70
2023/09/23 13:27:20;;;;;;;3.37;1.77;;;;;;;;;;4934753;29;20503;-71
2023/09/23 13:29:46;;;;;;;3.77;1.60;;;;;;;;;;4934651;29;20418;-70
2023/09/23 13:32:12;;;;;;;4.80;1.30;;;;;;;;;;4942209;29;20543;-70
2023/09/23 13:34:38;;;;;;;4.37;1.47;;;;;;;;;;4943053;29;20414;-70
2023/09/23 13:37:04;;;;;;;2.80;1.50;;;;;;;;;;4939438;29;20497;-69
2023/09/23 13:39:31;;;;;;;2.80;1.30;;;;;;;;;;4935575;29;20418;-71
2023/09/23 13:41:57;;;;;;;4.40;1.63;;;;;;;;;;4935118;29;20500;-70
2023/09/23 13:44:24;;;;;;;6.03;1.50;;;;;;;;;;4953182;29;20464;-70
2023/09/23 13:46:50;;;;;;;3.37;1.53;;;;;;;;;;4953491;28;20535;-71
2023/09/23 13:49:16;;;;;;;1.93;1.40;;;;;;;;;;4953265;28;20520;-71
2023/09/23 13:51:42;;;;;;;3.53;1.50;;;;;;;;;;4953460;28;20417;-70
2023/09/23 13:54:08;;;;;;;5.43;1.50;;;;;;;;;;4955286;28;20487;-70
2023/09/23 13:56:34;;;;;;;3.03;1.30;;;;;;;;;;4964681;28;20432;-69
2023/09/23 13:59:00;;;;;;;1.50;1.10;;;;;;;;;;4961771;28;20440;-70
2023/09/23 14:01:27;;;;;;;2.43;1.20;;;;;;;;;;4956660;29;20414;-70
2023/09/23 14:03:53;;;;;;;8.50;1.57;;;;;;;;;;4955605;29;20421;-69
2023/09/23 14:06:19;;;;;;;4.23;1.37;;;;;;;;;;4945776;29;20806;-70
2023/09/23 14:08:44;;;;;;;3.83;1.63;;;;;;;;;;4940338;29;20423;-69
2023/09/23 14:11:10;;;;;;;2.00;1.50;;;;;;;;;;4941314;29;20409;-71
2023/09/23 14:13:37;;;;;;;2.20;1.20;;;;;;;;;;4940420;29;20496;-69
2023/09/23 14:16:03;;;;;;;2.10;1.20;;;;;;;;;;4939085;29;20461;-69
2023/09/23 14:18:29;;;;;;;3.67;1.30;;;;;;;;;;4939165;29;20414;-69
2023/09/23 14:20:55;;;;;;;3.53;1.30;;;;;;;;;;4939019;29;20445;-68
2023/09/23 14:23:21;;;;;;;3.93;1.43;;;;;;;;;;4937584;29;20443;-69
2023/09/23 14:25:47;;;;;;;6.00;1.30;;;;;;;;;;4938680;29;20564;-70
2023/09/23 14:28:13;;;;;;;4.33;1.50;;;;;;;;;;4937869;29;20418;-69
2023/09/23 14:30:39;;;;;;;1.40;1.10;;;;;;;;;;4937591;29;20410;-70
2023/09/23 14:33:05;;;;;;;2.20;1.20;;;;;;;;;;4939550;29;20417;-70
2023/09/23 14:35:31;;;;;;;2.57;1.40;;;;;;;;;;4939771;29;20429;-70
2023/09/23 14:37:57;;;;;;;1.97;1.00;;;;;;;;;;4937708;29;20436;-70
2023/09/23 14:40:24;;;;;;;7.60;2.07;;;;;;;;;;4937624;29;20424;-70
2023/09/23 14:42:50;;;;;;;2.77;1.50;;;;;;;;;;4937635;29;20901;-70
2023/09/23 14:45:17;;;;;;;3.47;1.50;;;;;;;;;;4937106;29;20960;-68
2023/09/23 14:47:43;;;;;;;5.27;1.30;;;;;;;;;;4936795;29;20425;-69
2023/09/23 14:50:10;;;;;;;3.27;1.70;;;;;;;;;;4937123;29;20412;-70
2023/09/23 14:52:36;;;;;;;2.90;1.70;;;;;;;;;;4937595;29;20417;-69
2023/09/23 14:55:02;;;;;;;3.80;1.70;;;;;;;;;;4937288;29;20440;-70
2023/09/23 14:57:28;;;;;;;3.73;1.77;;;;;;;;;;4937959;29;20418;-70
2023/09/23 14:59:54;;;;;;;5.77;1.57;;;;;;;;;;4939189;29;20936;-70
2023/09/23 15:02:20;;;;;;;2.60;1.40;;;;;;;;;;4937921;29;20512;-69
2023/09/23 15:04:46;;;;;;;2.63;1.43;;;;;;;;;;4937392;29;20468;-69
2023/09/23 15:07:12;;;;;;;3.03;1.50;;;;;;;;;;4936409;29;20481;-70
2023/09/23 15:09:38;;;;;;;3.13;1.77;;;;;;;;;;4936084;29;20425;-71
2023/09/23 15:12:04;;;;;;;3.87;1.50;;;;;;;;;;4937673;29;20417;-70
2023/09/23 15:14:30;;;;;;;4.77;1.83;;;;;;;;;;4936705;29;20425;-69
2023/09/23 15:16:56;;;;;;;3.83;1.73;;;;;;;;;;4936742;29;20539;-70
2023/09/23 15:19:22;;;;;;;5.57;2.03;;;;;;;;;;4936898;29;20418;-69
2023/09/23 15:21:48;;;;;;;5.53;1.40;;;;;;;;;;4937201;29;20443;-69
2023/09/23 15:24:14;;;;;;;5.20;2.10;;;;;;;;;;4937133;29;20418;-69
2023/09/23 15:26:41;;;;;;;4.57;1.70;;;;;;;;;;4936927;29;20549;-71
2023/09/23 15:29:09;;;;;;;2.70;1.60;;;;;;;;;;4955581;29;20433;-70
2023/09/23 15:31:35;;;;;;;4.13;1.30;;;;;;;;;;4956544;28;20787;-71
2023/09/23 15:34:03;;;;;;;7.33;1.80;;;;;;;;;;4950588;28;20508;-71
2023/09/23 15:36:29;;;;;;;3.27;1.80;;;;;;;;;;4937032;29;20457;-70
2023/09/23 15:38:56;;;;;;;6.40;1.73;;;;;;;;;;4936393;29;20421;-70
2023/09/23 15:41:22;;;;;;;5.83;1.90;;;;;;;;;;4937225;29;20445;-70
2023/09/23 15:43:48;;;;;;;3.20;1.70;;;;;;;;;;4941247;29;20880;-70
2023/09/23 15:46:14;;;;;;;2.70;1.73;;;;;;;;;;4937066;29;20710;-71
2023/09/23 15:48:40;;;;;;;2.57;1.50;;;;;;;;;;4936843;29;20413;-69
2023/09/23 15:51:09;;;;;;;2.43;1.57;;;;;;;;;;4936833;29;20424;-70
2023/09/23 15:53:36;;;;;;;5.77;1.33;;;;;;;;;;4936371;29;20531;-69
2023/09/23 15:56:06;;;;;;;5.10;1.30;;;;;;;;;;4935849;29;20465;-69
2023/09/23 15:58:32;;;;;;;6.20;1.70;;;;;;;;;;4936559;29;20438;-69
2023/09/23 16:00:58;;;;;;;5.20;1.50;;;;;;;;;;4937696;29;20420;-70
2023/09/23 16:03:24;;;;;;;3.90;1.70;;;;;;;;;;4936288;29;20417;-70
2023/09/23 16:05:50;;;;;;;4.93;1.73;;;;;;;;;;4936549;29;20465;-69
2023/09/23 16:08:16;;;;;;;4.57;1.73;;;;;;;;;;4936228;29;20410;-70
2023/09/23 16:10:42;;;;;;;2.00;1.80;;;;;;;;;;4937034;29;20437;-69
2023/09/23 16:13:08;;;;;;;3.50;1.40;;;;;;;;;;4936280;29;20420;-69
2023/09/23 16:15:34;;;;;;;6.10;1.70;;;;;;;;;;4934116;29;20453;-69
2023/09/23 16:18:00;;;;;;;8.37;1.77;;;;;;;;;;4937201;29;20444;-69
2023/09/23 16:20:26;;;;;;;7.13;1.80;;;;;;;;;;4938839;29;20413;-69
2023/09/23 16:22:52;;;;;;;3.00;1.63;;;;;;;;;;4955011;29;20429;-69
2023/09/23 16:25:18;;;;;;;6.67;2.03;;;;;;;;;;4956026;28;20409;-69
2023/09/23 16:27:44;;;;;;;3.20;1.40;;;;;;;;;;4954403;28;20413;-70
2023/09/23 16:30:10;;;;;;;4.10;1.70;;;;;;;;;;4953740;28;20430;-70
2023/09/23 16:32:36;;;;;;;6.83;1.67;;;;;;;;;;4953868;28;20577;-69
2023/09/23 16:35:03;;;;;;;6.10;1.70;;;;;;;;;;4947085;29;20914;-69
2023/09/23 16:37:31;;;;;;;3.23;1.90;;;;;;;;;;4934851;29;20433;-69
2023/09/23 16:39:57;;;;;;;1.60;1.43;;;;;;;;;;4938597;29;20436;-69
2023/09/23 16:42:23;;;;;;;6.23;2.10;;;;;;;;;;4954154;29;20460;-69
2023/09/23 16:44:49;;;;;;;3.27;1.57;;;;;;;;;;4965310;28;20424;-69
2023/09/23 16:47:15;;;;;;;2.30;1.53;;;;;;;;;;4957686;28;20471;-69
2023/09/23 16:49:42;;;;;;;4.77;1.90;;;;;;;;;;4958041;28;20408;-68
2023/09/23 16:52:08;;;;;;;6.33;1.97;;;;;;;;;;4955637;28;20460;-69
2023/09/23 16:54:35;;;;;;;9.30;2.27;;;;;;;;;;4954059;28;20787;-68
2023/09/23 16:57:01;;;;;;;6.10;1.83;;;;;;;;;;4952934;28;20448;-69
2023/09/23 16:59:26;;;;;;;2.97;1.97;;;;;;;;;;4953996;28;20500;-69
2023/09/23 17:01:52;;;;;;;5.47;1.90;;;;;;;;;;4954360;28;20420;-69
2023/09/23 17:04:18;;;;;;;6.90;1.77;;;;;;;;;;4955349;28;20424;-72
2023/09/23 17:06:44;;;;;;;5.33;2.00;;;;;;;;;;4952365;28;20511;-71
2023/09/23 17:09:10;;;;;;;3.00;2.10;;;;;;;;;;4935311;29;20747;-70
2023/09/23 17:11:36;;;;;;;5.10;1.90;;;;;;;;;;4934835;29;20497;-70
2023/09/23 17:14:02;;;;;;;3.50;2.30;;;;;;;;;;4933841;29;20460;-69
2023/09/23 17:16:28;;;;;;;5.57;2.10;;;;;;;;;;4939908;29;20496;-69
2023/09/23 17:18:54;;;;;;;4.23;2.33;;;;;;;;;;4941991;28;20561;-69
2023/09/23 17:21:21;;;;;;;4.57;2.07;;;;;;;;;;4946552;28;20445;-69
2023/09/23 17:23:47;;;;;;;3.33;2.00;;;;;;;;;;4934967;29;20925;-70
2023/09/23 17:26:13;;;;;;;3.93;2.00;;;;;;;;;;4934745;29;20472;-69
2023/09/23 17:28:39;;;;;;;5.13;2.50;;;;;;;;;;4935092;29;20422;-70
2023/09/23 17:31:09;;;;;;;5.30;2.10;;;;;;;;;;4939502;29;20421;-70
2023/09/23 17:33:35;;;;;;;5.73;2.50;;;;;;;;;;4956779;28;20413;-68
2023/09/23 17:36:01;;;;;;;5.10;2.27;;;;;;;;;;4957907;28;20781;-69
2023/09/23 17:38:28;;;;;;;3.90;2.40;;;;;;;;;;4957890;28;20424;-70
2023/09/23 17:40:54;;;;;;;4.50;1.90;;;;;;;;;;4957385;28;20440;-69
2023/09/23 17:43:20;;;;;;;4.90;2.70;;;;;;;;;;4951476;28;20444;-72
2023/09/23 17:45:46;;;;;;;4.33;2.13;;;;;;;;;;4941400;29;20465;-70
2023/09/23 17:48:12;;;;;;;3.57;2.60;;;;;;;;;;4938195;29;20410;-69
2023/09/23 17:50:38;;;;;;;5.60;3.20;;;;;;;;;;4937885;29;20901;-69
2023/09/23 17:53:04;;;;;;;4.60;2.70;;;;;;;;;;4936776;29;20425;-70
2023/09/23 17:55:30;;;;;;;5.83;2.70;;;;;;;;;;4938166;29;20445;-69
2023/09/23 17:57:56;;;;;;;5.23;2.43;;;;;;;;;;4940789;29;20927;-69
2023/09/23 18:00:22;;;;;;;4.67;2.53;;;;;;;;;;4942026;29;20410;-69
2023/09/23 18:02:48;;;;;;;4.10;2.57;;;;;;;;;;4938653;29;20410;-69
2023/09/23 18:05:14;;;;;;;3.30;2.63;;;;;;;;;;4939660;29;20432;-70
2023/09/23 18:07:41;;;;;;;7.13;2.20;;;;;;;;;;4940242;29;20469;-69
2023/09/23 18:10:08;;;;;;;6.67;3.00;;;;;;;;;;4941370;29;20417;-70
2023/09/23 18:12:34;;;;;;;3.03;2.40;;;;;;;;;;4941030;29;20500;-70
2023/09/23 18:15:00;;;;;;;4.20;2.60;;;;;;;;;;4940257;29;20591;-68
2023/09/23 18:17:26;;;;;;;4.97;2.53;;;;;;;;;;4956916;28;20514;-69
2023/09/23 18:19:52;;;;;;;3.00;2.20;;;;;;;;;;4955441;28;20961;-69
2023/09/23 18:22:18;;;;;;;6.53;2.20;;;;;;;;;;4956385;28;20413;-70
2023/09/23 18:24:44;;;;;;;5.67;2.27;;;;;;;;;;4956521;28;21155;-69
2023/09/23 18:27:10;;;;;;;4.57;2.00;;;;;;;;;;4956458;28;21006;-70
2023/09/23 18:29:36;;;;;;;6.10;2.57;;;;;;;;;;4960837;28;20405;-70
2023/09/23 18:32:02;;;;;;;4.07;2.07;;;;;;;;;;4957315;28;20500;-69
2023/09/23 18:34:28;;;;;;;5.67;2.60;;;;;;;;;;4956151;28;20496;-69
2023/09/23 18:36:54;;;;;;;6.47;3.03;;;;;;;;;;4957728;28;20438;-70
2023/09/23 18:39:20;;;;;;;3.60;2.20;;;;;;;;;;4958606;28;20983;-70
2023/09/23 18:41:45;;;;;;;3.83;2.37;;;;;;;;;;4956331;28;20893;-70
2023/09/23 18:44:11;;;;;;;4.10;2.33;;;;;;;;;;4946813;28;20424;-70
2023/09/23 18:46:38;;;;;;;3.90;2.23;;;;;;;;;;4937040;29;20520;-69
2023/09/23 18:49:03;;;;;;;4.10;2.73;;;;;;;;;;4936689;29;20425;-69
2023/09/23 18:51:29;;;;;;;3.27;1.83;;;;;;;;;;4936905;29;20743;-69
2023/09/23 18:53:55;;;;;;;4.00;2.00;;;;;;;;;;4940974;29;20421;-69
2023/09/23 18:56:22;;;;;;;2.50;1.90;;;;;;;;;;4956057;28;20433;-69
2023/09/23 18:58:48;;;;;;;5.47;2.17;;;;;;;;;;4957305;28;20409;-69
2023/09/23 19:01:14;;;;;;;3.73;1.90;;;;;;;;;;4957175;28;20432;-68
2023/09/23 19:03:41;;;;;;;3.53;2.23;;;;;;;;;;4956664;28;20500;-68
2023/09/23 19:06:09;;;;;;;5.63;2.33;;;;;;;;;;4955879;28;20475;-68
2023/09/23 19:08:35;;;;;;;3.40;2.00;;;;;;;;;;4955806;28;20574;-69
2023/09/23 19:11:01;;;;;;;3.00;2.40;;;;;;;;;;4953140;28;20417;-69
2023/09/23 19:13:26;;;;;;;3.53;2.13;;;;;;;;;;4936078;29;20528;-70
2023/09/23 19:15:52;;;;;;;2.83;2.17;;;;;;;;;;4936140;29;20476;-69
2023/09/23 19:18:18;;;;;;;3.10;1.60;;;;;;;;;;4941718;29;20485;-69
2023/09/23 19:20:44;;;;;;;2.67;2.07;;;;;;;;;;4939751;29;20421;-68
2023/09/23 19:23:13;;;;;;;8.67;2.60;;;;;;;;;;4936520;29;20902;-69
2023/09/23 19:25:39;;;;;;;4.13;2.10;;;;;;;;;;4935964;29;20809;-69
2023/09/23 19:28:05;;;;;;;6.33;2.93;;;;;;;;;;4942124;29;20544;-68
2023/09/23 19:30:31;;;;;;;2.20;1.90;;;;;;;;;;4947311;28;20518;-68
2023/09/23 19:32:57;;;;;;;5.80;2.77;;;;;;;;;;4938247;29;20473;-68
2023/09/23 19:35:23;;;;;;;2.93;2.80;;;;;;;;;;4939123;29;20429;-70
2023/09/23 19:37:49;;;;;;;4.20;2.07;;;;;;;;;;4939093;29;20522;-68
2023/09/23 19:40:15;;;;;;;4.30;2.40;;;;;;;;;;4941095;29;20417;-69
2023/09/23 19:42:41;;;;;;;3.13;2.73;;;;;;;;;;4956632;29;20432;-70
2023/09/23 19:45:08;;;;;;;6.73;3.27;;;;;;;;;;4969704;28;20413;-70
2023/09/23 19:47:34;;;;;;;6.40;2.80;;;;;;;;;;4973490;28;20464;-69
2023/09/23 19:50:03;;;;;;;4.90;2.60;;;;;;;;;;4967179;28;20415;-70
2023/09/23 19:52:29;;;;;;;6.93;3.07;;;;;;;;;;4959775;28;20480;-69
2023/09/23 19:54:55;;;;;;;7.53;3.97;;;;;;;;;;4946700;28;20433;-68
2023/09/23 19:57:21;;;;;;;4.10;3.03;;;;;;;;;;4940818;29;20437;-69
2023/09/23 19:59:48;;;;;;;4.60;3.23;;;;;;;;;;4940568;29;20437;-70
2023/09/23 20:02:14;;;;;;;5.67;3.43;;;;;;;;;;4938574;29;20468;-71
2023/09/23 20:04:44;;;;;;;4.77;2.77;;;;;;;;;;4938787;29;20422;-70
2023/09/23 20:07:10;;;;;;;4.77;2.47;;;;;;;;;;4937989;29;20480;-69
2023/09/23 20:09:36;;;;;;;3.77;2.80;;;;;;;;;;4938874;29;20416;-69
2023/09/23 20:12:03;;;;;;;6.53;3.43;;;;;;;;;;4939851;29;20422;-68
2023/09/23 20:14:29;;;;;;;4.53;3.60;;;;;;;;;;4938773;29;20413;-69
2023/09/23 20:16:55;;;;;;;3.90;2.93;;;;;;;;;;4936851;29;20446;-70
2023/09/23 20:19:21;;;;;;;5.37;2.50;;;;;;;;;;4936893;29;20785;-70
2023/09/23 20:21:47;;;;;;;5.40;2.60;;;;;;;;;;4954018;29;20924;-70
2023/09/23 20:24:13;;;;;;;4.97;2.40;;;;;;;;;;4955502;28;20417;-70
2023/09/23 20:26:40;;;;;;;4.93;2.97;;;;;;;;;;4954242;28;20531;-70
2023/09/23 20:29:06;;;;;;;6.07;2.53;;;;;;;;;;4955509;28;20864;-70
2023/09/23 20:31:32;;;;;;;5.57;2.50;;;;;;;;;;4953098;28;20424;-69
2023/09/23 20:33:58;;;;;;;5.90;2.90;;;;;;;;;;4954522;28;20420;-70
2023/09/23 20:36:24;;;;;;;8.07;3.03;;;;;;;;;;4954584;28;20503;-70
2023/09/23 20:38:52;;;;;;;12.60;3.80;;;;;;;;;;4946178;28;20553;-70